Time;durP1;ratioP1;P1;durP2;ratioP2;P2;SDS_P1;SDS_P2;PMS_P1;PMS_P2;Temp;Humidity;BMP_temperature;BMP_pressure;BME280_temperature;BME280_humidity;BME280_pressure;Samples;Min_cycle;Max_cycle;Signal;HPM_P1;HPM_P2
2023/03/14 00:00:34;;;;;;;5.40;3.20;;;;;;;;;;104751;264;39813;-34
2023/03/14 00:03:25;;;;;;;5.50;3.00;;;;;;;;;;104748;264;42966;-34
2023/03/14 00:06:04;;;;;;;5.60;3.10;;;;;;;;;;104729;264;42372;-34
2023/03/14 00:08:41;;;;;;;5.60;3.20;;;;;;;;;;104581;264;175714;-34
2023/03/14 00:11:17;;;;;;;6.20;3.30;;;;;;;;;;104764;261;39744;-34
2023/03/14 00:13:54;;;;;;;5.70;3.30;;;;;;;;;;104754;264;42879;-34
2023/03/14 00:16:30;;;;;;;6.00;3.10;;;;;;;;;;104714;264;42261;-34
2023/03/14 00:19:08;;;;;;;5.90;3.20;;;;;;;;;;104610;264;175697;-34
2023/03/14 00:21:46;;;;;;;5.10;3.00;;;;;;;;;;104629;264;175670;-34
2023/03/14 00:24:22;;;;;;;5.80;3.30;;;;;;;;;;104748;264;44113;-33
2023/03/14 00:26:57;;;;;;;5.80;3.20;;;;;;;;;;104707;264;42432;-34
2023/03/14 00:29:35;;;;;;;6.10;3.30;;;;;;;;;;104708;264;38823;-34
2023/03/14 00:32:12;;;;;;;5.70;3.30;;;;;;;;;;104742;264;39681;-34
2023/03/14 00:34:47;;;;;;;6.20;3.30;;;;;;;;;;104739;264;43804;-34
2023/03/14 00:37:23;;;;;;;5.60;3.00;;;;;;;;;;104641;264;42533;-34
2023/03/14 00:39:58;;;;;;;6.30;3.20;;;;;;;;;;104693;264;38522;-34
2023/03/14 00:42:31;;;;;;;5.60;3.20;;;;;;;;;;104714;264;40020;-34
2023/03/14 00:45:10;;;;;;;5.90;3.30;;;;;;;;;;104638;264;175685;-34
2023/03/14 00:47:45;;;;;;;6.20;3.30;;;;;;;;;;104731;264;42140;-34
2023/03/14 00:50:19;;;;;;;5.40;3.10;;;;;;;;;;104693;264;38901;-34
2023/03/14 00:52:52;;;;;;;6.00;3.40;;;;;;;;;;104760;264;39897;-34
2023/03/14 00:55:30;;;;;;;5.80;3.10;;;;;;;;;;104750;264;42879;-34
2023/03/14 00:58:09;;;;;;;5.40;3.20;;;;;;;;;;104761;264;43321;-34
2023/03/14 01:00:45;;;;;;;5.40;3.00;;;;;;;;;;104707;264;38820;-34
2023/03/14 01:03:19;;;;;;;5.20;3.10;;;;;;;;;;104773;264;41160;-34
2023/03/14 01:05:55;;;;;;;5.80;3.20;;;;;;;;;;104714;264;43039;-34
2023/03/14 01:08:31;;;;;;;5.90;3.40;;;;;;;;;;104723;264;42611;-33
2023/03/14 01:11:13;;;;;;;5.00;3.00;;;;;;;;;;104667;264;39024;-33
2023/03/14 01:13:49;;;;;;;5.70;3.20;;;;;;;;;;104737;264;39990;-34
2023/03/14 01:16:26;;;;;;;6.30;3.50;;;;;;;;;;104722;264;43054;-34
2023/03/14 01:19:01;;;;;;;5.50;3.30;;;;;;;;;;104712;264;42751;-34
2023/03/14 01:21:37;;;;;;;5.40;3.00;;;;;;;;;;104715;264;44922;-34
2023/03/14 01:24:13;;;;;;;6.00;3.20;;;;;;;;;;104671;264;175656;-34
2023/03/14 01:26:47;;;;;;;6.10;3.20;;;;;;;;;;104756;264;42923;-34
2023/03/14 01:29:20;;;;;;;5.50;3.10;;;;;;;;;;104704;264;41898;-34
2023/03/14 01:31:56;;;;;;;5.80;3.40;;;;;;;;;;104760;264;45665;-34
2023/03/14 01:34:32;;;;;;;5.70;3.30;;;;;;;;;;104740;264;39724;-34
2023/03/14 01:37:07;;;;;;;6.40;3.40;;;;;;;;;;104726;264;43188;-34
2023/03/14 01:39:43;;;;;;;5.80;3.30;;;;;;;;;;104573;264;195517;-34
2023/03/14 01:42:21;;;;;;;5.70;3.10;;;;;;;;;;104733;264;38808;-34
2023/03/14 01:44:59;;;;;;;5.70;3.50;;;;;;;;;;104726;264;40820;-34
2023/03/14 01:47:35;;;;;;;6.30;3.40;;;;;;;;;;104719;264;44028;-34
2023/03/14 01:50:16;;;;;;;5.50;3.30;;;;;;;;;;104672;264;41934;-34
2023/03/14 01:52:58;;;;;;;6.60;3.60;;;;;;;;;;104471;264;318202;-34
2023/03/14 01:55:40;;;;;;;5.80;3.50;;;;;;;;;;104696;265;39994;-34
2023/03/14 01:58:16;;;;;;;5.40;3.20;;;;;;;;;;104741;264;42914;-34
2023/03/14 02:00:50;;;;;;;5.50;3.10;;;;;;;;;;104709;264;42283;-34
2023/03/14 02:03:27;;;;;;;6.40;3.20;;;;;;;;;;104731;264;38849;-34
2023/03/14 02:06:08;;;;;;;5.70;3.30;;;;;;;;;;104730;253;40746;-34
2023/03/14 02:08:50;;;;;;;5.30;3.20;;;;;;;;;;104719;264;43171;-34
2023/03/14 02:11:29;;;;;;;5.50;3.30;;;;;;;;;;104725;264;42204;-34
2023/03/14 02:14:08;;;;;;;5.30;3.30;;;;;;;;;;104780;264;38809;-34
2023/03/14 02:16:43;;;;;;;5.50;3.30;;;;;;;;;;104719;264;39840;-34
2023/03/14 02:19:31;;;;;;;6.00;3.30;;;;;;;;;;104732;264;43019;-34
2023/03/14 02:22:12;;;;;;;5.00;3.10;;;;;;;;;;104693;264;43587;-34
2023/03/14 02:24:55;;;;;;;5.60;3.40;;;;;;;;;;104747;264;38975;-34
2023/03/14 02:27:30;;;;;;;6.30;3.10;;;;;;;;;;104637;264;175690;-34
2023/03/14 02:30:09;;;;;;;5.20;3.20;;;;;;;;;;104680;264;44075;-34
2023/03/14 02:32:48;;;;;;;5.70;3.30;;;;;;;;;;104725;264;42369;-34
2023/03/14 02:35:28;;;;;;;5.70;3.10;;;;;;;;;;104746;269;39065;-34
2023/03/14 02:38:14;;;;;;;5.30;3.10;;;;;;;;;;104736;264;39683;-34
2023/03/14 02:40:50;;;;;;;5.40;3.40;;;;;;;;;;104679;265;43079;-34
2023/03/14 02:43:28;;;;;;;5.80;3.30;;;;;;;;;;104701;264;49607;-34
2023/03/14 02:46:05;;;;;;;5.80;3.10;;;;;;;;;;104730;264;38995;-34
2023/03/14 02:48:43;;;;;;;5.00;3.00;;;;;;;;;;104752;264;38457;-34
2023/03/14 02:51:19;;;;;;;5.30;3.10;;;;;;;;;;104712;264;43053;-34
2023/03/14 02:53:55;;;;;;;5.90;3.50;;;;;;;;;;104734;264;43260;-34
2023/03/14 02:56:32;;;;;;;5.60;3.50;;;;;;;;;;104766;264;39052;-34
2023/03/14 02:59:11;;;;;;;5.40;3.30;;;;;;;;;;104730;264;39690;-34
2023/03/14 03:01:48;;;;;;;5.10;3.10;;;;;;;;;;104664;264;43205;-34
2023/03/14 03:04:24;;;;;;;5.40;3.20;;;;;;;;;;104715;264;42317;-34
2023/03/14 03:07:01;;;;;;;5.80;3.40;;;;;;;;;;104755;264;38984;-34
2023/03/14 03:09:37;;;;;;;5.70;3.10;;;;;;;;;;104742;264;39776;-34
2023/03/14 03:12:15;;;;;;;5.10;3.30;;;;;;;;;;104702;264;43243;-34
2023/03/14 03:14:51;;;;;;;6.00;3.40;;;;;;;;;;104740;264;41951;-34
2023/03/14 03:17:28;;;;;;;5.40;3.30;;;;;;;;;;104745;264;39095;-34
2023/03/14 03:20:08;;;;;;;5.70;3.10;;;;;;;;;;104754;264;39920;-33
2023/03/14 03:22:43;;;;;;;6.20;3.10;;;;;;;;;;104691;264;42924;-33
2023/03/14 03:25:20;;;;;;;5.20;3.20;;;;;;;;;;104721;264;42632;-33
2023/03/14 03:27:54;;;;;;;5.70;3.10;;;;;;;;;;104747;264;38803;-33
2023/03/14 03:30:29;;;;;;;5.40;3.20;;;;;;;;;;104676;264;39679;-34
2023/03/14 03:33:06;;;;;;;5.30;3.20;;;;;;;;;;104686;264;42888;-34
2023/03/14 03:35:49;;;;;;;5.10;3.10;;;;;;;;;;104748;264;41928;-34
2023/03/14 03:38:23;;;;;;;5.40;3.40;;;;;;;;;;104751;264;39164;-34
2023/03/14 03:40:56;;;;;;;5.40;3.10;;;;;;;;;;104086;264;898834;-34
2023/03/14 03:43:29;;;;;;;5.50;3.20;;;;;;;;;;104679;264;42893;-34
2023/03/14 03:46:07;;;;;;;5.30;3.20;;;;;;;;;;104736;264;42345;-34
2023/03/14 03:48:42;;;;;;;5.60;3.20;;;;;;;;;;104733;264;38784;-34
2023/03/14 03:51:18;;;;;;;5.20;3.20;;;;;;;;;;104720;268;38798;-34
2023/03/14 03:53:53;;;;;;;5.20;3.20;;;;;;;;;;104692;264;42961;-34
2023/03/14 03:56:26;;;;;;;5.60;3.20;;;;;;;;;;104694;264;43716;-34
2023/03/14 03:59:03;;;;;;;5.40;3.20;;;;;;;;;;104691;264;39146;-34
2023/03/14 04:01:38;;;;;;;6.00;3.20;;;;;;;;;;104660;264;40096;-34
2023/03/14 04:04:13;;;;;;;4.90;3.10;;;;;;;;;;104658;264;42888;-34
2023/03/14 04:06:48;;;;;;;5.30;3.00;;;;;;;;;;104699;264;42083;-34
2023/03/14 04:09:23;;;;;;;4.80;2.90;;;;;;;;;;104702;264;39104;-33
2023/03/14 04:11:58;;;;;;;5.30;3.30;;;;;;;;;;104706;264;40096;-34
2023/03/14 04:14:36;;;;;;;5.10;3.20;;;;;;;;;;104698;264;42976;-34
2023/03/14 04:17:15;;;;;;;5.40;3.30;;;;;;;;;;104714;264;42178;-34
2023/03/14 04:19:51;;;;;;;5.30;3.20;;;;;;;;;;104733;264;39108;-34
2023/03/14 04:22:26;;;;;;;5.40;3.40;;;;;;;;;;104719;264;39945;-34
2023/03/14 04:25:04;;;;;;;5.30;3.10;;;;;;;;;;104670;264;43182;-34
2023/03/14 04:27:38;;;;;;;5.70;3.10;;;;;;;;;;104737;264;42301;-34
2023/03/14 04:30:15;;;;;;;4.90;3.00;;;;;;;;;;104716;264;38797;-34
2023/03/14 04:32:50;;;;;;;5.40;3.20;;;;;;;;;;104750;264;39719;-34
2023/03/14 04:35:26;;;;;;;5.50;3.20;;;;;;;;;;104823;264;43059;-34
2023/03/14 04:38:02;;;;;;;5.80;3.00;;;;;;;;;;104690;264;42520;-34
2023/03/14 04:40:38;;;;;;;4.90;2.90;;;;;;;;;;104746;264;40038;-34
2023/03/14 04:43:14;;;;;;;5.60;3.20;;;;;;;;;;104746;264;39810;-34
2023/03/14 04:45:49;;;;;;;5.20;2.90;;;;;;;;;;104725;264;48660;-34
2023/03/14 04:48:24;;;;;;;4.90;3.00;;;;;;;;;;104748;264;42279;-34
2023/03/14 04:51:00;;;;;;;5.10;3.10;;;;;;;;;;104714;264;38882;-34
2023/03/14 04:53:36;;;;;;;5.30;2.90;;;;;;;;;;104719;264;39701;-34
2023/03/14 04:56:12;;;;;;;5.40;3.20;;;;;;;;;;104696;264;50112;-34
2023/03/14 04:58:47;;;;;;;5.80;3.10;;;;;;;;;;104718;264;41960;-33
2023/03/14 05:01:23;;;;;;;4.60;2.90;;;;;;;;;;104735;264;39084;-33
2023/03/14 05:03:57;;;;;;;6.20;3.10;;;;;;;;;;104698;264;39724;-34
2023/03/14 05:06:32;;;;;;;5.90;3.00;;;;;;;;;;104711;264;42885;-34
2023/03/14 05:09:08;;;;;;;5.20;2.90;;;;;;;;;;104754;264;42251;-34
2023/03/14 05:11:46;;;;;;;5.40;2.90;;;;;;;;;;104689;264;38614;-34
2023/03/14 05:14:19;;;;;;;5.60;3.10;;;;;;;;;;104682;264;41129;-34
2023/03/14 05:16:52;;;;;;;5.70;3.10;;;;;;;;;;104754;264;43072;-34
2023/03/14 05:19:27;;;;;;;6.90;3.20;;;;;;;;;;104742;264;43524;-34
2023/03/14 05:22:00;;;;;;;5.00;2.80;;;;;;;;;;104724;264;38989;-34
2023/03/14 05:24:34;;;;;;;5.60;3.30;;;;;;;;;;104684;264;41204;-34
2023/03/14 05:27:07;;;;;;;5.20;3.00;;;;;;;;;;104730;264;44391;-34
2023/03/14 05:29:41;;;;;;;5.10;3.20;;;;;;;;;;104758;264;42354;-34
2023/03/14 05:32:14;;;;;;;5.20;2.70;;;;;;;;;;104740;264;38940;-34
2023/03/14 05:34:47;;;;;;;7.00;3.00;;;;;;;;;;104686;264;40072;-34
2023/03/14 05:37:21;;;;;;;5.40;3.10;;;;;;;;;;104631;264;175332;-34
2023/03/14 05:39:54;;;;;;;5.70;3.00;;;;;;;;;;104749;264;42087;-34
2023/03/14 05:42:27;;;;;;;6.20;3.10;;;;;;;;;;104749;264;38980;-34
2023/03/14 05:45:00;;;;;;;5.20;2.70;;;;;;;;;;104665;264;39677;-33
2023/03/14 05:47:35;;;;;;;4.90;3.00;;;;;;;;;;104764;264;43145;-34
2023/03/14 05:50:11;;;;;;;6.10;3.00;;;;;;;;;;104759;256;42481;-34
2023/03/14 05:52:47;;;;;;;6.10;3.10;;;;;;;;;;104778;264;38933;-34
2023/03/14 05:55:21;;;;;;;5.40;3.20;;;;;;;;;;104731;264;39823;-34
2023/03/14 05:57:57;;;;;;;5.60;2.90;;;;;;;;;;104781;264;42956;-34
2023/03/14 06:00:32;;;;;;;5.90;3.10;;;;;;;;;;104758;264;42562;-33
2023/03/14 06:03:07;;;;;;;5.90;2.90;;;;;;;;;;104766;264;40095;-34
2023/03/14 06:05:40;;;;;;;5.20;3.00;;;;;;;;;;104751;264;39746;-34
2023/03/14 06:08:13;;;;;;;4.70;2.80;;;;;;;;;;104788;264;42910;-34
2023/03/14 06:10:49;;;;;;;4.90;2.90;;;;;;;;;;104755;264;43882;-34
2023/03/14 06:13:22;;;;;;;5.30;2.70;;;;;;;;;;104792;264;39114;-34
2023/03/14 06:15:55;;;;;;;5.10;2.90;;;;;;;;;;104727;264;39373;-34
2023/03/14 06:18:30;;;;;;;5.40;3.00;;;;;;;;;;104751;264;45113;-34
2023/03/14 06:21:03;;;;;;;5.60;2.90;;;;;;;;;;104736;264;43465;-34
2023/03/14 06:23:38;;;;;;;6.10;3.00;;;;;;;;;;104759;264;38780;-34
2023/03/14 06:26:16;;;;;;;5.10;2.60;;;;;;;;;;104714;264;39831;-34
2023/03/14 06:28:54;;;;;;;4.80;2.80;;;;;;;;;;104775;264;43957;-34
2023/03/14 06:31:32;;;;;;;5.70;3.00;;;;;;;;;;104727;264;42540;-34
2023/03/14 06:34:09;;;;;;;5.70;3.10;;;;;;;;;;104745;264;38936;-34
2023/03/14 06:36:50;;;;;;;5.10;3.00;;;;;;;;;;104690;264;40082;-34
2023/03/14 06:39:26;;;;;;;5.90;2.80;;;;;;;;;;104763;264;42992;-34
2023/03/14 06:42:05;;;;;;;6.00;3.00;;;;;;;;;;104745;264;42385;-34
2023/03/14 06:44:42;;;;;;;5.10;2.80;;;;;;;;;;104692;264;38790;-34
2023/03/14 06:47:19;;;;;;;5.10;2.70;;;;;;;;;;104676;264;40134;-34
2023/03/14 06:49:55;;;;;;;5.70;2.80;;;;;;;;;;104742;264;42923;-34
2023/03/14 06:52:35;;;;;;;5.50;2.90;;;;;;;;;;104713;264;42367;-34
2023/03/14 06:55:17;;;;;;;6.40;2.90;;;;;;;;;;104757;264;38840;-34
2023/03/14 06:57:55;;;;;;;5.70;2.60;;;;;;;;;;104702;264;40974;-34
2023/03/14 07:00:30;;;;;;;5.70;2.70;;;;;;;;;;104551;264;175251;-34
2023/03/14 07:03:07;;;;;;;5.40;2.70;;;;;;;;;;104740;264;42152;-34
2023/03/14 07:05:47;;;;;;;4.60;2.70;;;;;;;;;;104757;264;39122;-34
2023/03/14 07:08:25;;;;;;;5.60;2.90;;;;;;;;;;104705;264;39857;-34
2023/03/14 07:11:01;;;;;;;5.40;2.90;;;;;;;;;;104722;264;43011;-34
2023/03/14 07:13:37;;;;;;;5.60;2.80;;;;;;;;;;104766;264;42195;-34
2023/03/14 07:16:13;;;;;;;5.90;2.80;;;;;;;;;;104670;265;38990;-34
2023/03/14 07:18:51;;;;;;;5.70;2.70;;;;;;;;;;104625;264;175650;-34
2023/03/14 07:21:28;;;;;;;5.20;2.60;;;;;;;;;;104738;264;42863;-34
2023/03/14 07:24:03;;;;;;;6.40;2.90;;;;;;;;;;104709;264;42466;-34
2023/03/14 07:26:39;;;;;;;5.10;2.80;;;;;;;;;;104615;264;175655;-34
2023/03/14 07:29:16;;;;;;;5.40;2.70;;;;;;;;;;104708;264;45877;-34
2023/03/14 07:31:54;;;;;;;5.60;2.80;;;;;;;;;;104721;264;43115;-34
2023/03/14 07:34:35;;;;;;;5.60;3.00;;;;;;;;;;104760;264;43407;-34
2023/03/14 07:37:10;;;;;;;6.30;3.00;;;;;;;;;;104722;264;38867;-34
2023/03/14 07:39:46;;;;;;;5.40;3.00;;;;;;;;;;104759;264;39741;-34
2023/03/14 07:42:22;;;;;;;5.70;2.80;;;;;;;;;;104737;264;42891;-34
2023/03/14 07:45:01;;;;;;;5.30;2.80;;;;;;;;;;104657;265;42172;-34
2023/03/14 07:47:38;;;;;;;5.20;2.80;;;;;;;;;;104612;265;38533;-34
2023/03/14 07:50:14;;;;;;;7.20;3.30;;;;;;;;;;104628;265;40005;-35
2023/03/14 07:52:51;;;;;;;6.50;3.40;;;;;;;;;;104677;265;43073;-34
2023/03/14 07:55:32;;;;;;;5.80;3.20;;;;;;;;;;104639;265;42549;-35
2023/03/14 07:58:08;;;;;;;6.00;3.20;;;;;;;;;;104622;265;38917;-34
2023/03/14 08:00:46;;;;;;;6.50;3.50;;;;;;;;;;104682;265;40003;-33
2023/03/14 08:03:23;;;;;;;5.30;3.30;;;;;;;;;;104659;265;42875;-34
2023/03/14 08:06:00;;;;;;;5.90;3.00;;;;;;;;;;104673;265;42316;-33
2023/03/14 08:08:38;;;;;;;5.30;2.80;;;;;;;;;;104634;265;38748;-33
2023/03/14 08:11:13;;;;;;;6.10;2.90;;;;;;;;;;104666;265;39841;-33
2023/03/14 08:13:52;;;;;;;5.00;2.80;;;;;;;;;;104687;265;42942;-34
2023/03/14 08:16:30;;;;;;;5.00;2.70;;;;;;;;;;104652;265;42242;-33
2023/03/14 08:19:09;;;;;;;4.90;2.80;;;;;;;;;;104626;265;38902;-34
2023/03/14 08:21:45;;;;;;;5.80;3.20;;;;;;;;;;104660;265;39738;-32
2023/03/14 08:24:21;;;;;;;5.20;3.00;;;;;;;;;;104634;265;42888;-33
2023/03/14 08:26:54;;;;;;;6.00;2.90;;;;;;;;;;104665;265;42219;-33
2023/03/14 08:29:29;;;;;;;6.00;3.20;;;;;;;;;;104659;265;38792;-33
2023/03/14 08:32:04;;;;;;;5.50;3.20;;;;;;;;;;104566;267;39798;-34
2023/03/14 08:34:42;;;;;;;6.30;3.50;;;;;;;;;;104701;265;43004;-34
2023/03/14 08:37:19;;;;;;;5.40;3.40;;;;;;;;;;104661;254;42369;-31
2023/03/14 08:39:59;;;;;;;6.20;3.60;;;;;;;;;;104623;324;38894;-32
2023/03/14 08:42:32;;;;;;;6.50;3.30;;;;;;;;;;104629;264;39872;-32
2023/03/14 08:45:08;;;;;;;6.00;3.20;;;;;;;;;;104703;264;44255;-33
2023/03/14 08:47:43;;;;;;;5.80;3.20;;;;;;;;;;104761;264;42235;-32
2023/03/14 08:50:16;;;;;;;6.20;3.60;;;;;;;;;;104681;264;38956;-32
2023/03/14 08:52:49;;;;;;;5.50;3.30;;;;;;;;;;104744;264;39709;-34
2023/03/14 08:55:27;;;;;;;5.60;3.60;;;;;;;;;;104733;264;42923;-36
2023/03/14 08:58:00;;;;;;;5.20;3.10;;;;;;;;;;104713;264;42568;-36
2023/03/14 09:00:33;;;;;;;6.30;3.40;;;;;;;;;;104633;264;38826;-35
2023/03/14 09:03:08;;;;;;;5.80;3.30;;;;;;;;;;104700;264;40001;-33
2023/03/14 09:05:43;;;;;;;6.10;3.30;;;;;;;;;;104718;264;42853;-32
2023/03/14 09:08:20;;;;;;;5.80;3.30;;;;;;;;;;104713;264;42292;-32
2023/03/14 09:10:56;;;;;;;5.30;3.20;;;;;;;;;;104661;264;38813;-32
2023/03/14 09:13:30;;;;;;;6.30;3.50;;;;;;;;;;104580;264;175586;-33
2023/03/14 09:16:03;;;;;;;6.20;3.60;;;;;;;;;;104676;264;42896;-33
2023/03/14 09:18:37;;;;;;;5.80;3.60;;;;;;;;;;104677;264;42562;-34
2023/03/14 09:21:14;;;;;;;6.00;3.40;;;;;;;;;;104659;264;38937;-35
2023/03/14 09:23:53;;;;;;;5.60;3.30;;;;;;;;;;104672;264;39940;-35
2023/03/14 09:26:31;;;;;;;6.10;3.30;;;;;;;;;;104692;264;43993;-34
2023/03/14 09:29:08;;;;;;;5.80;3.30;;;;;;;;;;104675;264;42228;-35
2023/03/14 09:31:43;;;;;;;6.40;3.60;;;;;;;;;;104674;264;44989;-34
2023/03/14 09:34:19;;;;;;;5.70;3.30;;;;;;;;;;104712;264;41275;-33
2023/03/14 09:36:53;;;;;;;4.90;3.10;;;;;;;;;;104692;264;43287;-33
2023/03/14 09:39:28;;;;;;;5.40;2.90;;;;;;;;;;104654;268;41402;-33
2023/03/14 09:42:11;;;;;;;5.60;3.00;;;;;;;;;;104674;264;46620;-33
2023/03/14 09:44:57;;;;;;;5.30;3.40;;;;;;;;;;104681;264;40040;-33
2023/03/14 09:47:35;;;;;;;6.10;3.20;;;;;;;;;;104688;264;42894;-33
2023/03/14 09:50:20;;;;;;;5.30;2.80;;;;;;;;;;104606;265;42450;-34
2023/03/14 09:53:02;;;;;;;5.10;3.00;;;;;;;;;;104312;264;519386;-35
2023/03/14 09:55:39;;;;;;;5.40;3.00;;;;;;;;;;104601;264;39738;-36
2023/03/14 09:58:21;;;;;;;5.20;3.10;;;;;;;;;;104658;264;44574;-34
2023/03/14 10:01:02;;;;;;;7.00;3.40;;;;;;;;;;104624;264;43536;-33
2023/03/14 10:03:38;;;;;;;6.30;3.30;;;;;;;;;;104707;264;40079;-33
2023/03/14 10:06:16;;;;;;;5.30;3.00;;;;;;;;;;104628;264;175597;-32
2023/03/14 10:08:53;;;;;;;6.10;3.20;;;;;;;;;;104732;264;43298;-35
2023/03/14 10:11:31;;;;;;;5.50;3.10;;;;;;;;;;104652;264;43409;-34
2023/03/14 10:14:12;;;;;;;5.10;3.00;;;;;;;;;;104658;264;39692;-35
2023/03/14 10:16:49;;;;;;;5.60;3.20;;;;;;;;;;104729;264;39689;-35
2023/03/14 10:19:22;;;;;;;5.70;3.20;;;;;;;;;;104613;264;175620;-35
2023/03/14 10:21:57;;;;;;;5.80;3.10;;;;;;;;;;104638;264;42469;-35
2023/03/14 10:24:34;;;;;;;6.00;3.10;;;;;;;;;;104735;264;38974;-34
2023/03/14 10:27:20;;;;;;;5.30;3.10;;;;;;;;;;104650;264;39920;-34
2023/03/14 10:29:59;;;;;;;5.70;3.40;;;;;;;;;;104706;264;43171;-35
2023/03/14 10:32:41;;;;;;;5.50;3.20;;;;;;;;;;104718;264;42256;-35
2023/03/14 10:35:26;;;;;;;6.80;3.10;;;;;;;;;;104746;264;38777;-33
2023/03/14 10:38:03;;;;;;;7.00;3.10;;;;;;;;;;104700;264;39773;-34
2023/03/14 10:40:48;;;;;;;5.70;3.10;;;;;;;;;;104058;264;894322;-34
2023/03/14 10:43:28;;;;;;;6.00;3.00;;;;;;;;;;104750;253;47960;-34
2023/03/14 10:46:06;;;;;;;6.10;3.50;;;;;;;;;;104642;265;40023;-34
2023/03/14 10:48:45;;;;;;;5.50;3.00;;;;;;;;;;104711;264;39907;-34
2023/03/14 10:51:30;;;;;;;5.50;2.70;;;;;;;;;;104684;264;43113;-34
2023/03/14 10:54:13;;;;;;;5.10;2.90;;;;;;;;;;104704;264;42654;-34
2023/03/14 10:56:49;;;;;;;5.20;2.90;;;;;;;;;;104699;264;38966;-31
2023/03/14 10:59:31;;;;;;;5.20;2.90;;;;;;;;;;104651;264;39666;-32
2023/03/14 11:02:27;;;;;;;4.90;2.80;;;;;;;;;;104616;265;44260;-33
2023/03/14 11:05:15;;;;;;;4.90;2.50;;;;;;;;;;104690;264;42259;-33
2023/03/14 11:07:53;;;;;;;4.60;2.80;;;;;;;;;;104721;264;39125;-32
2023/03/14 11:10:37;;;;;;;6.20;2.90;;;;;;;;;;104719;264;39938;-32
2023/03/14 11:13:25;;;;;;;5.00;2.50;;;;;;;;;;104683;264;43293;-34
2023/03/14 11:16:07;;;;;;;4.60;2.40;;;;;;;;;;104634;265;42149;-32
2023/03/14 11:19:10;;;;;;;5.20;2.70;;;;;;;;;;104692;264;38844;-32
2023/03/14 11:21:52;;;;;;;5.00;2.40;;;;;;;;;;104452;264;40921;-34
2023/03/14 11:25:02;;;;;;;4.40;2.40;;;;;;;;;;104708;264;50287;-33
2023/03/14 11:27:46;;;;;;;4.90;2.60;;;;;;;;;;104706;264;41984;-32
2023/03/14 11:30:28;;;;;;;4.60;2.50;;;;;;;;;;104699;264;39834;-32
2023/03/14 11:33:13;;;;;;;4.90;2.40;;;;;;;;;;104640;264;40902;-32
2023/03/14 11:35:56;;;;;;;4.80;2.40;;;;;;;;;;104720;264;42986;-34
2023/03/14 11:38:41;;;;;;;4.00;2.40;;;;;;;;;;104706;264;42468;-33
2023/03/14 11:41:23;;;;;;;4.60;2.50;;;;;;;;;;104718;264;39047;-35
2023/03/14 11:44:02;;;;;;;5.00;2.40;;;;;;;;;;104619;264;39686;-34
2023/03/14 11:46:42;;;;;;;5.30;3.10;;;;;;;;;;104732;264;43164;-32
2023/03/14 11:49:28;;;;;;;4.70;2.50;;;;;;;;;;104700;264;42078;-34
2023/03/14 11:52:09;;;;;;;4.70;2.50;;;;;;;;;;104010;265;895866;-34
2023/03/14 11:54:49;;;;;;;4.60;2.40;;;;;;;;;;104680;264;39677;-32
2023/03/14 11:57:24;;;;;;;4.70;2.70;;;;;;;;;;104725;264;42872;-31
2023/03/14 12:00:04;;;;;;;4.70;2.40;;;;;;;;;;104627;264;41953;-32
2023/03/14 12:02:52;;;;;;;4.60;2.40;;;;;;;;;;104598;264;175571;-33
2023/03/14 12:05:46;;;;;;;5.10;2.80;;;;;;;;;;104649;264;45329;-33
2023/03/14 12:08:46;;;;;;;5.00;2.80;;;;;;;;;;104654;265;42909;-33
2023/03/14 12:11:29;;;;;;;4.30;2.40;;;;;;;;;;104708;264;42285;-33
2023/03/14 12:14:05;;;;;;;4.50;2.40;;;;;;;;;;104632;264;38837;-33
2023/03/14 12:16:44;;;;;;;4.70;2.70;;;;;;;;;;104670;264;39754;-33
2023/03/14 12:19:48;;;;;;;4.90;2.60;;;;;;;;;;104684;264;42891;-33
2023/03/14 12:22:45;;;;;;;4.50;2.60;;;;;;;;;;104486;264;42428;-33
2023/03/14 12:25:23;;;;;;;4.70;2.50;;;;;;;;;;104654;265;38800;-33
2023/03/14 12:28:22;;;;;;;4.80;2.60;;;;;;;;;;104618;265;39700;-33
2023/03/14 12:30:55;;;;;;;5.00;2.70;;;;;;;;;;104672;264;42930;-33
2023/03/14 12:33:34;;;;;;;5.10;2.60;;;;;;;;;;104604;264;175217;-33
2023/03/14 12:36:48;;;;;;;5.20;2.70;;;;;;;;;;104739;265;45688;-33
2023/03/14 12:39:45;;;;;;;5.20;2.90;;;;;;;;;;104631;264;39353;-33
2023/03/14 12:42:39;;;;;;;4.90;2.80;;;;;;;;;;104691;264;42976;-34
2023/03/14 12:45:30;;;;;;;5.30;2.70;;;;;;;;;;104649;264;42163;-34
2023/03/14 12:48:14;;;;;;;4.60;2.70;;;;;;;;;;104643;264;38838;-34
2023/03/14 12:50:56;;;;;;;5.20;2.60;;;;;;;;;;104672;264;40033;-34
2023/03/14 12:54:04;;;;;;;5.10;2.80;;;;;;;;;;104674;264;42981;-34
2023/03/14 12:56:58;;;;;;;4.60;2.70;;;;;;;;;;104806;264;47698;-34
2023/03/14 12:59:40;;;;;;;5.30;2.80;;;;;;;;;;104719;264;38577;-34
2023/03/14 13:02:32;;;;;;;5.30;2.60;;;;;;;;;;104654;264;39405;-34
2023/03/14 13:05:13;;;;;;;5.10;2.70;;;;;;;;;;104673;264;42873;-34
2023/03/14 13:08:09;;;;;;;5.60;2.60;;;;;;;;;;104691;264;42578;-34
2023/03/14 13:10:52;;;;;;;4.90;2.70;;;;;;;;;;104695;264;38781;-34
2023/03/14 13:13:30;;;;;;;5.40;2.80;;;;;;;;;;104676;264;39560;-34
2023/03/14 13:16:20;;;;;;;4.90;2.80;;;;;;;;;;104609;265;43312;-34
2023/03/14 13:19:11;;;;;;;4.80;2.70;;;;;;;;;;104722;264;43332;-34
2023/03/14 13:21:47;;;;;;;5.20;2.80;;;;;;;;;;104686;264;39998;-34
2023/03/14 13:24:26;;;;;;;4.90;2.70;;;;;;;;;;104708;264;40943;-34
2023/03/14 13:27:00;;;;;;;5.20;2.70;;;;;;;;;;104723;264;42707;-34
2023/03/14 13:29:48;;;;;;;5.50;2.70;;;;;;;;;;104735;264;42140;-34
2023/03/14 13:32:27;;;;;;;5.50;3.00;;;;;;;;;;104690;264;38963;-34
2023/03/14 13:35:02;;;;;;;5.10;2.80;;;;;;;;;;104735;264;40954;-34
2023/03/14 13:37:44;;;;;;;5.20;2.90;;;;;;;;;;104599;265;48735;-34
2023/03/14 13:40:34;;;;;;;5.90;3.00;;;;;;;;;;104703;264;42229;-33
2023/03/14 13:43:31;;;;;;;5.20;2.80;;;;;;;;;;104732;253;38704;-33
2023/03/14 13:46:26;;;;;;;5.90;3.20;;;;;;;;;;104640;264;39657;-33
2023/03/14 13:49:04;;;;;;;5.10;2.90;;;;;;;;;;104694;264;44347;-33
2023/03/14 13:51:45;;;;;;;4.90;2.90;;;;;;;;;;104697;264;42257;-33
2023/03/14 13:54:29;;;;;;;5.20;3.00;;;;;;;;;;104755;264;38957;-33
2023/03/14 13:57:12;;;;;;;5.10;3.00;;;;;;;;;;104667;264;39450;-33
2023/03/14 13:59:47;;;;;;;4.80;2.80;;;;;;;;;;104642;264;43024;-33
2023/03/14 14:02:25;;;;;;;5.30;2.90;;;;;;;;;;104720;264;42169;-33
2023/03/14 14:05:02;;;;;;;4.70;2.70;;;;;;;;;;104802;264;38915;-33
2023/03/14 14:07:40;;;;;;;4.80;2.60;;;;;;;;;;104688;264;39693;-34
2023/03/14 14:10:19;;;;;;;5.20;2.70;;;;;;;;;;104704;264;43245;-34
2023/03/14 14:12:59;;;;;;;5.10;2.70;;;;;;;;;;104662;264;42350;-34
2023/03/14 14:15:40;;;;;;;5.60;2.90;;;;;;;;;;104706;264;38951;-34
2023/03/14 14:18:23;;;;;;;5.20;2.80;;;;;;;;;;104637;264;39738;-34
2023/03/14 14:21:01;;;;;;;4.70;2.70;;;;;;;;;;104717;264;42889;-34
2023/03/14 14:23:39;;;;;;;5.00;2.80;;;;;;;;;;104747;264;43294;-34
2023/03/14 14:26:20;;;;;;;5.00;2.70;;;;;;;;;;104714;264;38900;-34
2023/03/14 14:29:07;;;;;;;5.00;2.90;;;;;;;;;;104760;264;45783;-34
2023/03/14 14:31:46;;;;;;;5.30;3.00;;;;;;;;;;104708;264;42923;-34
2023/03/14 14:34:25;;;;;;;4.90;2.70;;;;;;;;;;104673;264;42241;-34
2023/03/14 14:37:02;;;;;;;4.80;2.60;;;;;;;;;;104657;264;39202;-34
2023/03/14 14:39:44;;;;;;;4.50;2.60;;;;;;;;;;104679;264;40800;-34
2023/03/14 14:42:22;;;;;;;4.40;2.40;;;;;;;;;;104675;264;42933;-34
2023/03/14 14:45:00;;;;;;;5.20;3.10;;;;;;;;;;104707;264;43227;-33
2023/03/14 14:47:48;;;;;;;5.40;2.60;;;;;;;;;;104642;264;39964;-33
2023/03/14 14:50:39;;;;;;;4.90;2.70;;;;;;;;;;104678;264;39851;-34
2023/03/14 14:53:36;;;;;;;5.20;2.90;;;;;;;;;;104671;264;43056;-35
2023/03/14 14:56:22;;;;;;;5.20;2.70;;;;;;;;;;104691;264;42353;-33
2023/03/14 14:59:02;;;;;;;5.20;2.70;;;;;;;;;;104672;264;39009;-33
2023/03/14 15:01:44;;;;;;;5.10;2.80;;;;;;;;;;104672;264;39881;-33
2023/03/14 15:04:24;;;;;;;5.10;2.60;;;;;;;;;;104690;264;42931;-34
2023/03/14 15:07:00;;;;;;;4.80;2.60;;;;;;;;;;104655;264;42441;-31
2023/03/14 15:09:35;;;;;;;5.10;2.60;;;;;;;;;;104672;264;45636;-33
2023/03/14 15:12:12;;;;;;;5.30;2.90;;;;;;;;;;104682;264;40085;-33
2023/03/14 15:14:48;;;;;;;4.80;2.50;;;;;;;;;;104729;256;42971;-35
2023/03/14 15:17:28;;;;;;;5.40;2.70;;;;;;;;;;104672;264;42203;-34
2023/03/14 15:20:05;;;;;;;4.70;2.70;;;;;;;;;;104658;264;44555;-35
2023/03/14 15:22:45;;;;;;;4.90;2.80;;;;;;;;;;104663;264;39687;-34
2023/03/14 15:25:22;;;;;;;4.70;2.60;;;;;;;;;;104666;264;43097;-34
2023/03/14 15:28:21;;;;;;;4.90;2.60;;;;;;;;;;104618;265;43457;-34
2023/03/14 15:31:02;;;;;;;4.80;2.50;;;;;;;;;;104647;257;38735;-32
2023/03/14 15:33:43;;;;;;;5.20;2.60;;;;;;;;;;104677;264;39773;-32
2023/03/14 15:36:31;;;;;;;4.70;2.40;;;;;;;;;;104656;264;42907;-34
2023/03/14 15:39:09;;;;;;;4.60;2.60;;;;;;;;;;104656;264;44370;-34
2023/03/14 15:41:46;;;;;;;5.00;2.90;;;;;;;;;;104671;264;39113;-34
2023/03/14 15:44:19;;;;;;;5.10;2.90;;;;;;;;;;104709;264;39659;-34
2023/03/14 15:47:01;;;;;;;4.70;2.60;;;;;;;;;;104679;264;42910;-34
2023/03/14 15:49:36;;;;;;;4.60;2.80;;;;;;;;;;104613;264;42428;-35
2023/03/14 15:52:12;;;;;;;5.70;2.70;;;;;;;;;;104650;264;38789;-34